createdAt,value
2019-01-06T00:01:48.782Z,14.73
2019-01-06T00:04:57.096Z,14.23
2019-01-06T00:07:49.586Z,13.50
2019-01-06T00:10:50.606Z,13.13
2019-01-06T00:13:51.473Z,19.30
2019-01-06T00:16:52.364Z,12.23
2019-01-06T00:19:53.867Z,11.97
2019-01-06T00:22:43.569Z,12.43
2019-01-06T00:25:44.760Z,12.07
2019-01-06T00:28:48.918Z,9.73
2019-01-06T00:31:38.035Z,12.60
2019-01-06T00:34:39.012Z,15.20
2019-01-06T00:37:40.046Z,16.67
2019-01-06T00:40:41.166Z,14.97
2019-01-06T00:43:36.686Z,11.73
2019-01-06T00:46:38.083Z,12.80
2019-01-06T00:49:39.143Z,14.70
2019-01-06T00:52:28.314Z,11.80
2019-01-06T00:55:37.331Z,16.23
2019-01-06T00:58:38.576Z,13.20
2019-01-06T01:01:39.358Z,13.77
2019-01-06T01:04:40.279Z,15.83
2019-01-06T01:07:41.088Z,14.80
2019-01-06T01:10:45.907Z,16.23
2019-01-06T01:13:46.594Z,17.33
2019-01-06T01:19:53.094Z,16.77
2019-01-06T01:22:54.336Z,15.87
2019-01-06T01:25:55.211Z,17.57
2019-01-06T01:28:56.138Z,18.70
2019-01-06T01:31:57.303Z,20.10
2019-01-06T01:34:58.126Z,15.23
2019-01-06T01:37:59.087Z,17.97
2019-01-06T01:41:00.250Z,26.17
2019-01-06T01:43:49.914Z,21.27
2019-01-06T01:46:58.107Z,18.03
2019-01-06T01:49:59.077Z,19.80
2019-01-06T01:53:06.023Z,20.10
2019-01-06T01:56:07.001Z,21.70
2019-01-06T01:59:07.644Z,19.97
2019-01-06T02:02:08.576Z,22.30
2019-01-06T02:05:07.331Z,20.70
2019-01-06T02:08:10.645Z,19.53
2019-01-06T02:11:11.886Z,22.00
2019-01-06T02:14:15.711Z,19.63
2019-01-06T02:17:19.664Z,19.70
2019-01-06T02:20:20.099Z,27.83
2019-01-06T02:23:21.994Z,21.67
2019-01-06T02:26:11.121Z,16.93
2019-01-06T02:29:12.417Z,20.73
2019-01-06T02:32:13.383Z,20.83
2019-01-06T02:35:12.734Z,23.80
2019-01-06T02:38:13.409Z,23.57
2019-01-06T02:41:14.286Z,19.63
2019-01-06T02:44:13.039Z,23.50
2019-01-06T02:47:11.406Z,24.63
2019-01-06T02:50:00.569Z,19.30
2019-01-06T02:52:59.455Z,21.10
2019-01-06T02:56:00.303Z,23.80
2019-01-06T02:59:06.770Z,19.40
2019-01-06T03:02:09.093Z,21.33
2019-01-06T03:05:10.144Z,25.00
2019-01-06T03:08:18.789Z,21.57
2019-01-06T03:11:19.196Z,20.60
2019-01-06T03:14:16.210Z,18.90
2019-01-06T03:17:18.088Z,19.87
2019-01-06T03:20:19.122Z,22.83
2019-01-06T03:23:20.036Z,23.73
2019-01-06T03:26:22.166Z,22.70
2019-01-06T03:29:24.417Z,20.17
2019-01-06T03:32:25.488Z,19.53
2019-01-06T03:35:26.488Z,19.17
2019-01-06T03:38:27.362Z,19.77
2019-01-06T03:41:31.058Z,19.97
2019-01-06T03:44:33.215Z,18.47
2019-01-06T03:50:33.944Z,18.50
2019-01-06T03:53:34.269Z,20.87
2019-01-06T03:56:35.108Z,22.57
2019-01-06T03:59:24.254Z,18.93
2019-01-06T04:02:31.436Z,21.03
2019-01-06T04:05:34.790Z,16.77
2019-01-06T04:08:35.953Z,19.90
2019-01-06T04:11:39.871Z,19.47
2019-01-06T04:14:40.824Z,22.03
2019-01-06T04:17:43.343Z,21.30
2019-01-06T04:20:43.991Z,21.57
2019-01-06T04:23:44.657Z,23.50
2019-01-06T04:26:45.515Z,22.40
2019-01-06T04:29:49.483Z,21.40
2019-01-06T04:32:47.134Z,19.70
2019-01-06T04:35:53.855Z,19.90
2019-01-06T04:38:57.314Z,21.53
2019-01-06T04:41:41.742Z,25.40
2019-01-06T04:44:45.710Z,21.60
2019-01-06T04:47:47.298Z,24.10
2019-01-06T04:50:54.536Z,22.63
2019-01-06T04:53:55.311Z,23.97
2019-01-06T04:56:58.405Z,22.73
2019-01-06T04:59:59.809Z,21.13
2019-01-06T05:02:49.328Z,21.53
2019-01-06T05:05:49.621Z,21.67
2019-01-06T05:08:50.928Z,22.67
2019-01-06T05:11:43.574Z,23.67
2019-01-06T05:14:47.335Z,22.60
2019-01-06T05:17:47.128Z,23.67
2019-01-06T05:20:45.652Z,28.07
2019-01-06T05:23:49.474Z,24.03
2019-01-06T05:26:50.775Z,28.37
2019-01-06T05:29:51.975Z,30.33
2019-01-06T05:32:53.161Z,23.77
2019-01-06T05:35:53.959Z,22.20
2019-01-06T05:38:54.934Z,21.93
2019-01-06T05:41:56.046Z,21.77
2019-01-06T05:44:54.410Z,22.53
2019-01-06T05:48:01.748Z,24.80
2019-01-06T05:51:03.402Z,22.87
2019-01-06T05:54:04.423Z,25.30
2019-01-06T05:57:11.761Z,22.37
2019-01-06T06:00:14.005Z,23.03
2019-01-06T06:03:13.192Z,24.47
2019-01-06T06:06:14.259Z,27.63
2019-01-06T06:09:10.607Z,28.33
2019-01-06T06:12:11.808Z,26.53
2019-01-06T06:15:12.761Z,25.93
2019-01-06T06:18:16.650Z,23.57
2019-01-06T06:21:13.360Z,27.10
2019-01-06T06:24:19.667Z,27.23
2019-01-06T06:27:23.726Z,26.93
2019-01-06T06:30:32.550Z,28.33
2019-01-06T06:33:39.261Z,28.43
2019-01-06T06:36:40.301Z,30.17
2019-01-06T06:39:41.261Z,22.63
2019-01-06T06:42:42.156Z,32.70
2019-01-06T06:45:44.193Z,31.87
2019-01-06T06:48:45.155Z,27.27
2019-01-06T06:51:34.392Z,24.80
2019-01-06T06:54:37.698Z,24.03
2019-01-06T06:57:38.959Z,23.80
2019-01-06T07:00:40.051Z,21.87
2019-01-06T07:03:44.791Z,23.87
2019-01-06T07:06:48.866Z,22.83
2019-01-06T07:09:50.981Z,23.67
2019-01-06T07:12:51.784Z,19.70
2019-01-06T07:15:52.594Z,22.27
2019-01-06T07:18:53.460Z,23.30
2019-01-06T07:21:54.452Z,22.07
2019-01-06T07:24:57.914Z,19.33
2019-01-06T07:27:58.747Z,20.60
2019-01-06T07:30:57.517Z,19.53
2019-01-06T07:33:53.829Z,20.40
2019-01-06T07:36:55.075Z,18.97
2019-01-06T07:39:57.094Z,19.27
2019-01-06T07:42:57.918Z,21.97
2019-01-06T07:45:59.231Z,19.90
2019-01-06T07:49:00.252Z,21.27
2019-01-06T07:52:01.263Z,21.30
2019-01-06T07:55:02.279Z,19.60
2019-01-06T07:58:09.167Z,20.17
2019-01-06T08:04:10.238Z,17.70
2019-01-06T08:07:17.072Z,19.53
2019-01-06T08:10:14.938Z,21.07
2019-01-06T08:13:18.499Z,21.87
2019-01-06T08:16:25.689Z,20.50
2019-01-06T08:19:29.839Z,21.93
2019-01-06T08:22:33.718Z,27.27
2019-01-06T08:25:34.917Z,21.17
2019-01-06T08:28:35.920Z,23.27
2019-01-06T08:31:39.969Z,22.27
2019-01-06T08:34:29.169Z,28.23
2019-01-06T08:37:31.362Z,26.57
2019-01-06T08:40:30.179Z,29.67
2019-01-06T08:43:31.346Z,28.60
2019-01-06T08:46:32.247Z,26.70
2019-01-06T08:49:33.267Z,31.60
2019-01-06T08:52:34.225Z,30.13
2019-01-06T08:55:38.107Z,30.97
2019-01-06T08:58:39.102Z,29.20
2019-01-06T09:01:40.083Z,31.87
2019-01-06T09:04:37.415Z,29.80
2019-01-06T09:07:37.844Z,28.30
2019-01-06T09:10:38.638Z,31.43
2019-01-06T09:13:42.423Z,25.90
2019-01-06T09:16:43.499Z,28.17
2019-01-06T09:19:50.224Z,25.07
2019-01-06T09:22:35.399Z,27.70
2019-01-06T09:25:41.118Z,30.97
2019-01-06T09:28:42.330Z,31.77
2019-01-06T09:31:42.776Z,31.07
2019-01-06T09:34:44.169Z,32.23
2019-01-06T09:37:44.654Z,31.87
2019-01-06T09:40:47.678Z,30.73
2019-01-06T09:43:48.693Z,34.97
2019-01-06T09:46:49.135Z,34.43
2019-01-06T09:49:49.876Z,33.90
2019-01-06T09:52:51.107Z,36.33
2019-01-06T09:55:39.454Z,31.73
2019-01-06T09:58:47.082Z,32.93
2019-01-06T10:01:59.371Z,29.03
2019-01-06T10:04:46.917Z,36.67
2019-01-06T10:07:51.841Z,29.80
2019-01-06T10:11:00.067Z,32.87
2019-01-06T10:14:06.599Z,32.37
2019-01-06T10:17:07.653Z,33.37
2019-01-06T10:20:16.558Z,27.37
2019-01-06T10:23:20.465Z,25.77
2019-01-06T10:26:20.519Z,27.00
2019-01-06T10:29:22.582Z,26.20
2019-01-06T10:32:26.599Z,23.87
2019-01-06T10:35:31.758Z,23.90
2019-01-06T10:38:36.006Z,21.57
2019-01-06T10:41:36.836Z,24.00
2019-01-06T10:44:37.738Z,21.17
2019-01-06T10:47:44.340Z,19.57
2019-01-06T10:50:45.254Z,21.47
2019-01-06T10:53:46.291Z,21.03
2019-01-06T10:56:47.438Z,23.43
2019-01-06T10:59:48.447Z,22.00
2019-01-06T11:02:49.445Z,21.60
2019-01-06T11:05:55.105Z,26.07
2019-01-06T11:08:44.341Z,18.83
2019-01-06T11:11:44.769Z,23.40
2019-01-06T11:14:46.043Z,22.17
2019-01-06T11:17:46.674Z,20.87
2019-01-06T11:20:43.692Z,22.73
2019-01-06T11:23:44.833Z,20.57
2019-01-06T11:26:46.911Z,18.57
2019-01-06T11:29:48.960Z,21.67
2019-01-06T11:32:51.793Z,23.33
2019-01-06T11:35:46.899Z,18.70
2019-01-06T11:38:47.243Z,21.53
2019-01-06T11:41:49.001Z,21.33
2019-01-06T11:44:49.514Z,22.00
2019-01-06T11:47:50.358Z,20.33
2019-01-06T11:50:48.173Z,22.67
2019-01-06T11:53:51.934Z,18.83
2019-01-06T11:56:37.412Z,22.50
2019-01-06T11:59:38.430Z,21.37
2019-01-06T12:02:39.158Z,22.30
2019-01-06T12:05:43.426Z,20.40
2019-01-06T12:08:44.408Z,21.17
2019-01-06T12:11:45.127Z,21.37
2019-01-06T12:14:45.926Z,23.30
2019-01-06T12:17:50.063Z,23.17
2019-01-06T12:20:50.496Z,22.93
2019-01-06T12:23:51.682Z,20.77
2019-01-06T12:26:47.741Z,20.93
2019-01-06T12:29:48.162Z,24.67
2019-01-06T12:32:55.147Z,22.27
2019-01-06T12:35:56.019Z,22.13
2019-01-06T12:38:56.914Z,24.40
2019-01-06T12:41:57.705Z,23.13
2019-01-06T12:44:58.455Z,22.23
2019-01-06T12:47:56.451Z,21.63
2019-01-06T12:51:03.386Z,26.10
2019-01-06T12:54:03.866Z,26.00
2019-01-06T12:57:04.911Z,27.03
2019-01-06T13:00:08.330Z,21.87
2019-01-06T13:03:08.175Z,24.37
2019-01-06T13:05:57.766Z,26.33
2019-01-06T13:09:07.123Z,24.83
2019-01-06T13:12:33.074Z,24.07
2019-01-06T13:15:36.055Z,22.73
2019-01-06T13:18:29.880Z,25.33
2019-01-06T13:21:28.725Z,24.30
2019-01-06T13:24:37.402Z,25.73
2019-01-06T13:27:40.259Z,24.37
2019-01-06T13:30:47.010Z,25.47
2019-01-06T13:33:47.439Z,25.83
2019-01-06T13:36:50.596Z,26.33
2019-01-06T13:39:51.643Z,24.30
2019-01-06T13:42:53.462Z,22.90
2019-01-06T13:45:46.614Z,22.53
2019-01-06T13:48:53.738Z,25.07
2019-01-06T13:51:54.990Z,23.70
2019-01-06T13:55:01.552Z,23.30
2019-01-06T13:58:02.478Z,25.90
2019-01-06T14:01:03.464Z,32.07
2019-01-06T14:04:04.406Z,26.60
2019-01-06T14:07:05.132Z,27.83
2019-01-06T14:10:09.015Z,28.70
2019-01-06T14:13:09.851Z,29.20
2019-01-06T14:16:10.877Z,31.23
2019-01-06T14:19:11.806Z,29.00
2019-01-06T14:22:13.030Z,29.63
2019-01-06T14:25:13.670Z,25.20
2019-01-06T14:28:14.550Z,28.23
2019-01-06T14:31:15.811Z,28.17
2019-01-06T14:34:16.574Z,25.00
2019-01-06T14:37:17.626Z,27.13
2019-01-06T14:40:18.635Z,26.03
2019-01-06T14:43:19.647Z,26.93
2019-01-06T14:46:20.612Z,27.27
2019-01-06T14:49:10.254Z,26.17
2019-01-06T14:52:10.728Z,27.33
2019-01-06T14:55:17.674Z,27.97
2019-01-06T14:58:13.108Z,25.73
2019-01-06T15:01:14.532Z,26.83
2019-01-06T15:04:15.173Z,29.90
2019-01-06T15:07:16.134Z,30.13
2019-01-06T15:10:06.491Z,25.20
2019-01-06T15:13:07.726Z,25.23
2019-01-06T15:16:08.990Z,26.33
2019-01-06T15:19:10.107Z,26.00
2019-01-06T15:22:08.084Z,22.73
2019-01-06T15:25:09.231Z,26.97
2019-01-06T15:28:15.798Z,22.47
2019-01-06T15:31:16.745Z,24.73
2019-01-06T15:34:17.898Z,26.87
2019-01-06T15:37:18.764Z,27.30
2019-01-06T15:40:19.728Z,24.03
2019-01-06T15:43:22.334Z,26.80
2019-01-06T15:46:22.199Z,27.27
2019-01-06T15:49:23.319Z,29.30
2019-01-06T15:52:24.042Z,23.63
2019-01-06T15:55:25.093Z,24.33
2019-01-06T15:58:25.925Z,25.13
2019-01-06T16:01:26.489Z,22.97
2019-01-06T16:04:27.693Z,25.07
2019-01-06T16:07:28.437Z,24.33
2019-01-06T16:10:18.222Z,22.07
2019-01-06T16:13:21.031Z,24.50
2019-01-06T16:16:23.206Z,21.27
2019-01-06T16:19:24.163Z,20.93
2019-01-06T16:22:27.854Z,19.83
2019-01-06T16:25:29.134Z,21.67
2019-01-06T16:28:30.100Z,22.80
2019-01-06T16:31:31.145Z,23.07
2019-01-06T16:34:20.853Z,24.33
2019-01-06T16:37:29.181Z,21.93
2019-01-06T16:40:29.862Z,21.57
2019-01-06T16:46:43.452Z,25.37
2019-01-06T16:49:44.142Z,23.27
2019-01-06T16:52:44.949Z,24.13
2019-01-06T16:55:49.151Z,25.97
2019-01-06T16:58:49.683Z,23.67
2019-01-06T17:01:50.677Z,29.80
2019-01-06T17:04:51.541Z,33.43
2019-01-06T17:07:52.415Z,23.47
2019-01-06T17:10:53.789Z,29.63
2019-01-06T17:13:54.750Z,27.50
2019-01-06T17:16:52.380Z,30.80
2019-01-06T17:19:41.702Z,31.20
2019-01-06T17:22:42.926Z,30.47
2019-01-06T17:25:47.031Z,31.73
2019-01-06T17:28:47.952Z,34.33
2019-01-06T17:31:55.020Z,29.90
2019-01-06T17:34:50.509Z,32.60
2019-01-06T17:37:45.683Z,31.73
2019-01-06T17:40:35.049Z,31.27
2019-01-06T17:43:36.660Z,32.73
2019-01-06T17:46:38.310Z,30.67
2019-01-06T17:49:42.366Z,29.30
2019-01-06T17:52:31.891Z,29.93
2019-01-06T17:55:40.172Z,29.70
2019-01-06T17:58:40.978Z,28.23
2019-01-06T18:01:42.030Z,35.97
2019-01-06T18:04:43.111Z,30.30
2019-01-06T18:07:46.886Z,32.83
2019-01-06T18:10:36.348Z,35.43
2019-01-06T18:13:37.211Z,33.40
2019-01-06T18:16:41.059Z,31.77
2019-01-06T18:19:42.122Z,32.43
2019-01-06T18:22:43.046Z,33.97
2019-01-06T18:25:44.115Z,33.83
2019-01-06T18:28:44.878Z,36.70
2019-01-06T18:31:49.090Z,40.83
2019-01-06T18:34:38.331Z,31.87
2019-01-06T18:37:39.701Z,34.87
2019-01-06T18:40:46.330Z,31.63
2019-01-06T18:43:47.214Z,36.60
2019-01-06T18:46:48.298Z,38.07
2019-01-06T18:49:53.356Z,35.63
2019-01-06T18:52:54.924Z,39.47
2019-01-06T18:55:56.280Z,40.73
2019-01-06T18:58:57.343Z,39.30
2019-01-06T19:01:59.232Z,37.57
2019-01-06T19:05:00.651Z,35.30
2019-01-06T19:08:04.712Z,38.23
2019-01-06T19:11:11.346Z,36.93
2019-01-06T19:14:18.216Z,41.87
2019-01-06T19:17:21.501Z,38.07
2019-01-06T19:20:22.304Z,41.23
2019-01-06T19:23:26.522Z,40.87
2019-01-06T19:26:27.011Z,42.70
2019-01-06T19:29:28.246Z,40.10
2019-01-06T19:32:29.305Z,39.90
2019-01-06T19:35:30.754Z,39.23
2019-01-06T19:38:32.576Z,40.33
2019-01-06T19:41:36.750Z,36.50
2019-01-06T19:44:44.688Z,38.20
2019-01-06T19:47:39.736Z,39.07
2019-01-06T19:50:46.435Z,42.47
2019-01-06T19:53:35.787Z,43.47
2019-01-06T19:56:52.375Z,39.17
2019-01-06T19:59:48.154Z,40.63
2019-01-06T20:02:47.255Z,45.07
2019-01-06T20:05:48.002Z,40.83
2019-01-06T20:08:48.926Z,40.93
2019-01-06T20:11:49.396Z,39.70
2019-01-06T20:14:56.216Z,43.73
2019-01-06T20:17:57.235Z,43.93
2019-01-06T20:21:02.228Z,41.87
2019-01-06T20:24:03.419Z,45.33
2019-01-06T20:30:18.739Z,46.27
2019-01-06T20:33:16.675Z,40.30
2019-01-06T20:36:18.295Z,45.07
2019-01-06T20:39:21.009Z,43.00
2019-01-06T20:42:24.931Z,45.27
2019-01-06T20:45:26.338Z,43.63
2019-01-06T20:48:27.542Z,44.87
2019-01-06T20:51:29.660Z,42.67
2019-01-06T20:54:32.095Z,43.20
2019-01-06T20:57:33.246Z,45.27
2019-01-06T21:00:34.317Z,43.07
2019-01-06T21:03:37.141Z,40.53
2019-01-06T21:06:55.662Z,44.20
2019-01-06T21:09:49.446Z,46.13
2019-01-06T21:16:01.202Z,45.37
2019-01-06T21:19:04.280Z,47.27
2019-01-06T21:21:57.880Z,42.93
2019-01-06T21:25:01.877Z,40.40
2019-01-06T21:30:58.883Z,39.90
2019-01-06T21:33:50.627Z,40.23
2019-01-06T21:36:51.829Z,40.63
2019-01-06T21:39:34.909Z,41.30
2019-01-06T21:45:36.304Z,41.73
2019-01-06T21:48:34.769Z,42.37
2019-01-06T21:54:58.518Z,42.50
2019-01-06T21:58:05.111Z,46.73
2019-01-06T22:04:20.576Z,42.23
2019-01-06T22:07:22.066Z,44.33
2019-01-06T22:10:23.190Z,40.63
2019-01-06T22:13:18.488Z,42.20
2019-01-06T22:16:18.968Z,39.90
2019-01-06T22:19:19.802Z,40.20
2019-01-06T22:22:26.455Z,47.77
2019-01-06T22:25:33.422Z,43.00
2019-01-06T22:28:34.679Z,41.93
2019-01-06T22:31:35.333Z,42.73
2019-01-06T22:34:35.962Z,45.00
2019-01-06T22:37:40.238Z,42.07
2019-01-06T22:40:33.148Z,42.83
2019-01-06T22:43:34.028Z,46.03
2019-01-06T22:46:34.667Z,47.40
2019-01-06T22:49:35.637Z,51.10
2019-01-06T22:52:37.049Z,44.50
2019-01-06T22:55:40.549Z,53.13
2019-01-06T22:58:41.200Z,58.93
2019-01-06T23:01:41.975Z,54.77
2019-01-06T23:04:43.043Z,51.23
2019-01-06T23:07:46.985Z,48.23
2019-01-06T23:10:48.193Z,50.77
2019-01-06T23:13:49.225Z,46.53
2019-01-06T23:16:52.931Z,49.87
2019-01-06T23:19:53.435Z,49.50
2019-01-06T23:22:54.448Z,51.03
2019-01-06T23:25:55.343Z,48.33
2019-01-06T23:28:56.812Z,50.47
2019-01-06T23:31:54.287Z,48.80
2019-01-06T23:34:57.891Z,50.80
2019-01-06T23:37:58.943Z,52.77
2019-01-06T23:40:59.727Z,49.97
2019-01-06T23:44:03.614Z,51.87
2019-01-06T23:47:04.031Z,49.60
2019-01-06T23:50:04.863Z,49.17
2019-01-06T23:53:05.611Z,54.57
2019-01-06T23:56:03.485Z,55.30
2019-01-06T23:59:04.329Z,51.40
